VVDN/DAD METAR and TAF weather

Enter ICAO airport designator
Station Type Date Time Source
VVDN METAR 2020/08/05 16:30 UTC NOAA

VVDN 051630Z 18003KT 9999 FEW015 SCT060 26/25 Q1007 NOSIG


Station Type Date Time Source
VVDN Decoded METAR 2020/08/05 16:30 UTC NOAA

Da Nang, Vietnam (VVDN) 16-02N 108-11E 7M
Aug 05, 2020 - 12:30 PM EDT / 2020.08.05 1630 UTC
Wind: from the S (180 degrees) at 3 MPH (3 KT):0
Visibility: greater than 7 mile(s):0
Sky conditions: partly cloudy
Temperature: 78 F (26 C)
Dew Point: 77 F (25 C)
Relative Humidity: 94%
Pressure (altimeter): 29.74 in. Hg (1007 hPa)
ob: VVDN 051630Z 18003KT 9999 FEW015 SCT060 26/25 Q1007 NOSIG
cycle: 16

Station Type Date Time Source
VVDN TAF 2020/08/05 12:39 UTC NOAA

TAF VVDN 051100Z 0512/0612 34005KT 9999 FEW015 BKN060
TEMPO 0512/0516 4000 TSRA SCT013 FEW015CB BKN050
TEMPO 0608/0612 4000 TSRA SCT013 FEW015CB BKN050

Example: see airport list